Jakarta/Soekarno-Hatta, Indonesia
Current Conditions -  °F | °C
As of 7:00 AM on Tuesday 23 Dec 2014 (Local Time) from WIII Reporting Station
Scattered Clouds Scattered Clouds  
Wind Chill: 84°   Ceiling: Unl
Heat Index: 92°   Visibility: 6mi
Dew Point: 75°   Wind: 9mph
Humidity: 74%   Direction: 250°WSW
Pressure: 29.77"   Gusts: NA
Location:  6.13°S, 106.66°E
Report Text: WIII 230000Z 25008KT 9999 SCT020 29/24 Q1008 NOSIG
Loading
Personal Weather Stations






























Interactive Weather Map New forecast layout! Learn more

10-Day Weather Forecast

Advertisements
Track Severe Weather on mobile